sensor_id;sensor_type;location;lat;lon;timestamp;P1;durP1;ratioP1;P2;durP2;ratioP2
33672;SDS011;20011;51.510;9.942;2022-12-08T00:01:20;14.00;;;5.63;;
33672;SDS011;20011;51.510;9.942;2022-12-08T00:03:49;8.88;;;5.82;;
33672;SDS011;20011;51.510;9.942;2022-12-08T00:06:26;11.90;;;5.25;;
33672;SDS011;20011;51.510;9.942;2022-12-08T00:12:04;10.43;;;5.28;;
33672;SDS011;20011;51.510;9.942;2022-12-08T00:14:41;14.65;;;6.20;;
33672;SDS011;20011;51.510;9.942;2022-12-08T00:17:10;11.95;;;5.18;;
33672;SDS011;20011;51.510;9.942;2022-12-08T00:19:39;14.13;;;6.35;;
33672;SDS011;20011;51.510;9.942;2022-12-08T00:22:07;18.80;;;5.68;;
33672;SDS011;20011;51.510;9.942;2022-12-08T00:24:36;8.82;;;5.25;;
33672;SDS011;20011;51.510;9.942;2022-12-08T00:27:07;11.05;;;5.63;;
33672;SDS011;20011;51.510;9.942;2022-12-08T00:29:36;11.15;;;5.65;;
33672;SDS011;20011;51.510;9.942;2022-12-08T00:32:03;10.10;;;6.07;;
33672;SDS011;20011;51.510;9.942;2022-12-08T00:34:31;14.73;;;6.63;;
33672;SDS011;20011;51.510;9.942;2022-12-08T00:36:59;12.07;;;6.18;;
33672;SDS011;20011;51.510;9.942;2022-12-08T00:39:26;11.63;;;6.38;;
33672;SDS011;20011;51.510;9.942;2022-12-08T00:41:53;15.25;;;5.75;;
33672;SDS011;20011;51.510;9.942;2022-12-08T00:44:39;11.80;;;6.95;;
33672;SDS011;20011;51.510;9.942;2022-12-08T00:47:07;15.18;;;7.00;;
33672;SDS011;20011;51.510;9.942;2022-12-08T00:49:35;10.60;;;6.15;;
33672;SDS011;20011;51.510;9.942;2022-12-08T00:52:02;11.88;;;6.55;;
33672;SDS011;20011;51.510;9.942;2022-12-08T00:54:29;11.98;;;6.47;;
33672;SDS011;20011;51.510;9.942;2022-12-08T00:56:57;16.42;;;6.50;;
33672;SDS011;20011;51.510;9.942;2022-12-08T00:59:24;16.73;;;7.80;;
33672;SDS011;20011;51.510;9.942;2022-12-08T01:01:51;13.23;;;6.20;;
33672;SDS011;20011;51.510;9.942;2022-12-08T01:04:19;19.77;;;6.70;;
33672;SDS011;20011;51.510;9.942;2022-12-08T01:06:52;9.75;;;6.55;;
33672;SDS011;20011;51.510;9.942;2022-12-08T01:09:21;10.57;;;6.50;;
33672;SDS011;20011;51.510;9.942;2022-12-08T01:11:49;8.13;;;6.03;;
33672;SDS011;20011;51.510;9.942;2022-12-08T01:16:56;13.27;;;6.72;;
33672;SDS011;20011;51.510;9.942;2022-12-08T01:19:27;11.52;;;6.45;;
33672;SDS011;20011;51.510;9.942;2022-12-08T01:22:19;12.63;;;7.82;;
33672;SDS011;20011;51.510;9.942;2022-12-08T01:28:11;12.60;;;7.40;;
33672;SDS011;20011;51.510;9.942;2022-12-08T01:30:43;20.30;;;7.80;;
33672;SDS011;20011;51.510;9.942;2022-12-08T01:33:17;16.20;;;7.80;;
33672;SDS011;20011;51.510;9.942;2022-12-08T01:35:47;18.33;;;9.07;;
33672;SDS011;20011;51.510;9.942;2022-12-08T01:38:17;15.50;;;7.78;;
33672;SDS011;20011;51.510;9.942;2022-12-08T01:40:53;12.05;;;7.95;;
33672;SDS011;20011;51.510;9.942;2022-12-08T01:43:23;12.35;;;7.65;;
33672;SDS011;20011;51.510;9.942;2022-12-08T01:45:56;16.95;;;7.82;;
33672;SDS011;20011;51.510;9.942;2022-12-08T01:48:27;11.38;;;8.23;;
33672;SDS011;20011;51.510;9.942;2022-12-08T01:51:06;15.77;;;8.52;;
33672;SDS011;20011;51.510;9.942;2022-12-08T01:54:03;11.02;;;7.95;;
33672;SDS011;20011;51.510;9.942;2022-12-08T01:56:40;12.95;;;8.50;;
33672;SDS011;20011;51.510;9.942;2022-12-08T01:59:54;17.70;;;8.18;;
33672;SDS011;20011;51.510;9.942;2022-12-08T02:02:41;12.00;;;7.95;;
33672;SDS011;20011;51.510;9.942;2022-12-08T02:05:29;14.80;;;9.32;;
33672;SDS011;20011;51.510;9.942;2022-12-08T02:08:07;13.70;;;7.82;;
33672;SDS011;20011;51.510;9.942;2022-12-08T02:10:47;14.70;;;7.97;;
33672;SDS011;20011;51.510;9.942;2022-12-08T02:13:32;13.68;;;8.93;;
33672;SDS011;20011;51.510;9.942;2022-12-08T02:19:04;14.27;;;7.95;;
33672;SDS011;20011;51.510;9.942;2022-12-08T02:30:20;17.90;;;9.15;;
33672;SDS011;20011;51.510;9.942;2022-12-08T02:41:40;13.05;;;8.88;;
33672;SDS011;20011;51.510;9.942;2022-12-08T02:47:19;13.65;;;9.43;;
33672;SDS011;20011;51.510;9.942;2022-12-08T02:49:56;17.98;;;10.23;;
33672;SDS011;20011;51.510;9.942;2022-12-08T02:55:05;16.13;;;8.55;;
33672;SDS011;20011;51.510;9.942;2022-12-08T03:08:07;14.57;;;9.25;;
33672;SDS011;20011;51.510;9.942;2022-12-08T03:11:00;14.05;;;9.63;;
33672;SDS011;20011;51.510;9.942;2022-12-08T03:13:42;16.13;;;8.93;;
33672;SDS011;20011;51.510;9.942;2022-12-08T03:16:20;13.73;;;8.13;;
33672;SDS011;20011;51.510;9.942;2022-12-08T03:19:03;14.95;;;8.65;;
33672;SDS011;20011;51.510;9.942;2022-12-08T03:21:55;11.63;;;8.32;;
33672;SDS011;20011;51.510;9.942;2022-12-08T03:24:44;16.63;;;9.52;;
33672;SDS011;20011;51.510;9.942;2022-12-08T03:27:20;12.38;;;8.32;;
33672;SDS011;20011;51.510;9.942;2022-12-08T03:30:04;11.40;;;8.35;;
33672;SDS011;20011;51.510;9.942;2022-12-08T03:35:47;13.45;;;8.40;;
33672;SDS011;20011;51.510;9.942;2022-12-08T03:38:19;10.65;;;8.00;;
33672;SDS011;20011;51.510;9.942;2022-12-08T03:41:05;14.55;;;8.63;;
33672;SDS011;20011;51.510;9.942;2022-12-08T03:43:48;11.02;;;6.68;;
33672;SDS011;20011;51.510;9.942;2022-12-08T03:46:20;12.60;;;7.72;;
33672;SDS011;20011;51.510;9.942;2022-12-08T03:48:49;11.23;;;7.00;;
33672;SDS011;20011;51.510;9.942;2022-12-08T03:51:29;12.95;;;6.35;;
33672;SDS011;20011;51.510;9.942;2022-12-08T03:54:05;12.38;;;7.22;;
33672;SDS011;20011;51.510;9.942;2022-12-08T03:56:48;13.38;;;7.43;;
33672;SDS011;20011;51.510;9.942;2022-12-08T03:59:21;12.85;;;7.45;;
33672;SDS011;20011;51.510;9.942;2022-12-08T04:01:56;13.80;;;8.48;;
33672;SDS011;20011;51.510;9.942;2022-12-08T04:04:30;15.00;;;7.57;;
33672;SDS011;20011;51.510;9.942;2022-12-08T04:09:36;20.27;;;8.45;;
33672;SDS011;20011;51.510;9.942;2022-12-08T04:12:19;13.30;;;8.25;;
33672;SDS011;20011;51.510;9.942;2022-12-08T04:15:06;17.80;;;8.07;;
33672;SDS011;20011;51.510;9.942;2022-12-08T04:17:43;12.25;;;8.27;;
33672;SDS011;20011;51.510;9.942;2022-12-08T04:20:38;15.23;;;8.02;;
33672;SDS011;20011;51.510;9.942;2022-12-08T04:23:12;14.88;;;7.80;;
33672;SDS011;20011;51.510;9.942;2022-12-08T04:25:47;10.90;;;7.40;;
33672;SDS011;20011;51.510;9.942;2022-12-08T04:28:20;14.93;;;8.38;;
33672;SDS011;20011;51.510;9.942;2022-12-08T04:31:04;14.13;;;8.23;;
33672;SDS011;20011;51.510;9.942;2022-12-08T04:33:59;12.23;;;7.10;;
33672;SDS011;20011;51.510;9.942;2022-12-08T04:36:34;12.00;;;7.43;;
33672;SDS011;20011;51.510;9.942;2022-12-08T04:39:05;16.77;;;7.07;;
33672;SDS011;20011;51.510;9.942;2022-12-08T04:41:46;15.32;;;7.95;;
33672;SDS011;20011;51.510;9.942;2022-12-08T04:44:22;18.55;;;9.02;;
33672;SDS011;20011;51.510;9.942;2022-12-08T04:46:52;15.67;;;8.83;;
33672;SDS011;20011;51.510;9.942;2022-12-08T04:49:30;12.85;;;8.02;;
33672;SDS011;20011;51.510;9.942;2022-12-08T04:52:01;16.08;;;7.90;;
33672;SDS011;20011;51.510;9.942;2022-12-08T04:54:37;13.38;;;7.28;;
33672;SDS011;20011;51.510;9.942;2022-12-08T04:59:42;12.73;;;7.53;;
33672;SDS011;20011;51.510;9.942;2022-12-08T05:02:11;12.05;;;7.50;;
33672;SDS011;20011;51.510;9.942;2022-12-08T05:04:39;12.10;;;7.00;;
33672;SDS011;20011;51.510;9.942;2022-12-08T05:07:07;11.23;;;7.25;;
33672;SDS011;20011;51.510;9.942;2022-12-08T05:09:52;12.93;;;7.72;;
33672;SDS011;20011;51.510;9.942;2022-12-08T05:12:20;11.23;;;7.72;;
33672;SDS011;20011;51.510;9.942;2022-12-08T05:17:20;18.05;;;6.97;;
33672;SDS011;20011;51.510;9.942;2022-12-08T05:19:53;9.65;;;6.30;;
33672;SDS011;20011;51.510;9.942;2022-12-08T05:22:20;12.80;;;6.70;;
33672;SDS011;20011;51.510;9.942;2022-12-08T05:24:57;14.75;;;7.57;;
33672;SDS011;20011;51.510;9.942;2022-12-08T05:27:24;12.27;;;7.22;;
33672;SDS011;20011;51.510;9.942;2022-12-08T05:29:51;14.10;;;7.35;;
33672;SDS011;20011;51.510;9.942;2022-12-08T05:32:19;19.02;;;8.25;;
33672;SDS011;20011;51.510;9.942;2022-12-08T05:34:46;16.60;;;7.78;;
33672;SDS011;20011;51.510;9.942;2022-12-08T05:37:14;12.30;;;7.13;;
33672;SDS011;20011;51.510;9.942;2022-12-08T05:39:41;16.25;;;7.05;;
33672;SDS011;20011;51.510;9.942;2022-12-08T05:42:09;12.52;;;7.05;;
33672;SDS011;20011;51.510;9.942;2022-12-08T05:44:36;9.55;;;7.72;;
33672;SDS011;20011;51.510;9.942;2022-12-08T05:47:04;12.00;;;7.43;;
33672;SDS011;20011;51.510;9.942;2022-12-08T05:51:58;15.05;;;6.72;;
33672;SDS011;20011;51.510;9.942;2022-12-08T05:54:26;11.13;;;7.57;;
33672;SDS011;20011;51.510;9.942;2022-12-08T05:56:55;16.25;;;7.60;;
33672;SDS011;20011;51.510;9.942;2022-12-08T05:59:23;13.25;;;7.55;;
33672;SDS011;20011;51.510;9.942;2022-12-08T06:01:50;13.60;;;8.15;;
33672;SDS011;20011;51.510;9.942;2022-12-08T06:04:17;16.50;;;7.55;;
33672;SDS011;20011;51.510;9.942;2022-12-08T06:06:44;16.40;;;8.55;;
33672;SDS011;20011;51.510;9.942;2022-12-08T06:09:12;12.88;;;8.13;;
33672;SDS011;20011;51.510;9.942;2022-12-08T06:11:39;14.02;;;8.15;;
33672;SDS011;20011;51.510;9.942;2022-12-08T06:14:09;10.68;;;8.07;;
33672;SDS011;20011;51.510;9.942;2022-12-08T06:16:36;11.15;;;7.93;;
33672;SDS011;20011;51.510;9.942;2022-12-08T06:19:04;16.02;;;8.95;;
33672;SDS011;20011;51.510;9.942;2022-12-08T06:21:31;14.90;;;9.02;;
33672;SDS011;20011;51.510;9.942;2022-12-08T06:23:59;12.70;;;8.55;;
33672;SDS011;20011;51.510;9.942;2022-12-08T06:26:26;12.35;;;8.75;;
33672;SDS011;20011;51.510;9.942;2022-12-08T06:28:54;16.00;;;8.90;;
33672;SDS011;20011;51.510;9.942;2022-12-08T06:31:22;11.57;;;8.52;;
33672;SDS011;20011;51.510;9.942;2022-12-08T06:33:51;14.93;;;8.70;;
33672;SDS011;20011;51.510;9.942;2022-12-08T06:36:23;15.63;;;8.05;;
33672;SDS011;20011;51.510;9.942;2022-12-08T06:38:51;14.27;;;7.93;;
33672;SDS011;20011;51.510;9.942;2022-12-08T06:41:19;13.50;;;8.05;;
33672;SDS011;20011;51.510;9.942;2022-12-08T06:43:46;13.80;;;7.93;;
33672;SDS011;20011;51.510;9.942;2022-12-08T06:46:14;10.43;;;7.38;;
33672;SDS011;20011;51.510;9.942;2022-12-08T06:48:43;12.07;;;8.18;;
33672;SDS011;20011;51.510;9.942;2022-12-08T06:51:12;11.52;;;7.35;;
33672;SDS011;20011;51.510;9.942;2022-12-08T06:53:44;13.55;;;7.28;;
33672;SDS011;20011;51.510;9.942;2022-12-08T06:56:12;11.63;;;7.53;;
33672;SDS011;20011;51.510;9.942;2022-12-08T06:58:41;14.10;;;8.40;;
33672;SDS011;20011;51.510;9.942;2022-12-08T07:01:15;12.70;;;7.80;;
33672;SDS011;20011;51.510;9.942;2022-12-08T07:03:43;9.10;;;7.63;;
33672;SDS011;20011;51.510;9.942;2022-12-08T07:06:13;18.27;;;8.40;;
33672;SDS011;20011;51.510;9.942;2022-12-08T07:08:50;15.13;;;8.60;;
33672;SDS011;20011;51.510;9.942;2022-12-08T07:11:17;14.55;;;8.40;;
33672;SDS011;20011;51.510;9.942;2022-12-08T07:13:47;13.73;;;8.68;;
33672;SDS011;20011;51.510;9.942;2022-12-08T07:16:15;14.75;;;8.35;;
33672;SDS011;20011;51.510;9.942;2022-12-08T07:18:42;14.65;;;8.30;;
33672;SDS011;20011;51.510;9.942;2022-12-08T07:21:10;17.38;;;8.93;;
33672;SDS011;20011;51.510;9.942;2022-12-08T07:37:45;10.20;;;7.25;;
33672;SDS011;20011;51.510;9.942;2022-12-08T07:40:13;14.05;;;7.40;;
33672;SDS011;20011;51.510;9.942;2022-12-08T07:42:40;14.85;;;8.18;;
33672;SDS011;20011;51.510;9.942;2022-12-08T07:45:08;10.88;;;7.82;;
33672;SDS011;20011;51.510;9.942;2022-12-08T07:47:35;14.82;;;8.35;;
33672;SDS011;20011;51.510;9.942;2022-12-08T07:50:02;12.32;;;7.90;;
33672;SDS011;20011;51.510;9.942;2022-12-08T07:52:30;11.55;;;8.43;;
33672;SDS011;20011;51.510;9.942;2022-12-08T07:55:00;10.15;;;7.75;;
33672;SDS011;20011;51.510;9.942;2022-12-08T07:57:27;15.20;;;8.63;;
33672;SDS011;20011;51.510;9.942;2022-12-08T07:59:54;12.77;;;8.02;;
33672;SDS011;20011;51.510;9.942;2022-12-08T08:02:22;10.85;;;8.10;;
33672;SDS011;20011;51.510;9.942;2022-12-08T08:04:51;13.47;;;8.47;;
33672;SDS011;20011;51.510;9.942;2022-12-08T08:07:19;13.10;;;7.47;;
33672;SDS011;20011;51.510;9.942;2022-12-08T08:09:46;16.17;;;9.05;;
33672;SDS011;20011;51.510;9.942;2022-12-08T08:12:23;14.18;;;7.43;;
33672;SDS011;20011;51.510;9.942;2022-12-08T08:18:49;11.35;;;6.75;;
33672;SDS011;20011;51.510;9.942;2022-12-08T08:21:23;13.82;;;6.65;;
33672;SDS011;20011;51.510;9.942;2022-12-08T08:24:11;9.73;;;6.90;;
33672;SDS011;20011;51.510;9.942;2022-12-08T08:26:38;14.45;;;7.45;;
33672;SDS011;20011;51.510;9.942;2022-12-08T08:29:06;8.23;;;6.00;;
33672;SDS011;20011;51.510;9.942;2022-12-08T08:31:34;9.10;;;6.63;;
33672;SDS011;20011;51.510;9.942;2022-12-08T08:34:02;7.20;;;4.93;;
33672;SDS011;20011;51.510;9.942;2022-12-08T08:36:32;9.10;;;6.00;;
33672;SDS011;20011;51.510;9.942;2022-12-08T08:39:00;9.00;;;5.30;;
33672;SDS011;20011;51.510;9.942;2022-12-08T08:41:30;7.65;;;5.45;;
33672;SDS011;20011;51.510;9.942;2022-12-08T08:43:59;7.57;;;5.38;;
33672;SDS011;20011;51.510;9.942;2022-12-08T08:46:27;6.47;;;5.13;;
33672;SDS011;20011;51.510;9.942;2022-12-08T08:48:58;8.60;;;5.45;;
33672;SDS011;20011;51.510;9.942;2022-12-08T08:51:31;8.55;;;5.25;;
33672;SDS011;20011;51.510;9.942;2022-12-08T08:54:12;7.63;;;5.15;;
33672;SDS011;20011;51.510;9.942;2022-12-08T08:56:50;6.53;;;4.68;;
33672;SDS011;20011;51.510;9.942;2022-12-08T08:59:23;9.00;;;5.60;;
33672;SDS011;20011;51.510;9.942;2022-12-08T09:01:54;7.63;;;4.43;;
33672;SDS011;20011;51.510;9.942;2022-12-08T09:04:23;7.35;;;5.25;;
33672;SDS011;20011;51.510;9.942;2022-12-08T09:06:53;6.57;;;5.63;;
33672;SDS011;20011;51.510;9.942;2022-12-08T09:09:22;9.93;;;6.13;;
33672;SDS011;20011;51.510;9.942;2022-12-08T09:14:23;9.20;;;4.70;;
33672;SDS011;20011;51.510;9.942;2022-12-08T09:16:50;12.00;;;6.22;;
33672;SDS011;20011;51.510;9.942;2022-12-08T09:19:18;7.65;;;5.53;;
33672;SDS011;20011;51.510;9.942;2022-12-08T09:21:45;10.13;;;5.68;;
33672;SDS011;20011;51.510;9.942;2022-12-08T09:24:12;7.95;;;5.30;;
33672;SDS011;20011;51.510;9.942;2022-12-08T09:26:42;8.32;;;5.20;;
33672;SDS011;20011;51.510;9.942;2022-12-08T09:29:10;5.85;;;4.88;;
33672;SDS011;20011;51.510;9.942;2022-12-08T09:31:39;6.40;;;4.82;;
33672;SDS011;20011;51.510;9.942;2022-12-08T09:34:06;15.23;;;5.20;;
33672;SDS011;20011;51.510;9.942;2022-12-08T09:36:34;7.55;;;5.25;;
33672;SDS011;20011;51.510;9.942;2022-12-08T09:39:01;6.50;;;4.63;;
33672;SDS011;20011;51.510;9.942;2022-12-08T09:46:40;6.43;;;4.60;;
33672;SDS011;20011;51.510;9.942;2022-12-08T09:49:12;9.32;;;5.22;;
33672;SDS011;20011;51.510;9.942;2022-12-08T09:51:42;8.20;;;5.22;;
33672;SDS011;20011;51.510;9.942;2022-12-08T09:54:14;13.45;;;5.78;;
33672;SDS011;20011;51.510;9.942;2022-12-08T09:56:51;7.55;;;5.05;;
33672;SDS011;20011;51.510;9.942;2022-12-08T10:01:48;7.57;;;4.60;;
33672;SDS011;20011;51.510;9.942;2022-12-08T10:04:23;6.22;;;4.93;;
33672;SDS011;20011;51.510;9.942;2022-12-08T10:09:57;8.52;;;5.25;;
33672;SDS011;20011;51.510;9.942;2022-12-08T10:12:47;8.35;;;4.40;;
33672;SDS011;20011;51.510;9.942;2022-12-08T10:18:03;6.20;;;4.20;;
33672;SDS011;20011;51.510;9.942;2022-12-08T10:20:39;6.18;;;4.18;;
33672;SDS011;20011;51.510;9.942;2022-12-08T10:23:12;5.60;;;4.32;;
33672;SDS011;20011;51.510;9.942;2022-12-08T10:25:44;6.85;;;4.13;;
33672;SDS011;20011;51.510;9.942;2022-12-08T10:28:13;5.50;;;4.13;;
33672;SDS011;20011;51.510;9.942;2022-12-08T10:30:40;9.02;;;4.55;;
33672;SDS011;20011;51.510;9.942;2022-12-08T10:33:17;6.53;;;4.50;;
33672;SDS011;20011;51.510;9.942;2022-12-08T10:35:48;5.35;;;3.95;;
33672;SDS011;20011;51.510;9.942;2022-12-08T10:38:28;6.45;;;4.00;;
33672;SDS011;20011;51.510;9.942;2022-12-08T10:41:03;5.53;;;4.28;;
33672;SDS011;20011;51.510;9.942;2022-12-08T10:43:54;7.70;;;4.55;;
33672;SDS011;20011;51.510;9.942;2022-12-08T10:46:26;6.45;;;4.68;;
33672;SDS011;20011;51.510;9.942;2022-12-08T10:48:55;7.10;;;4.00;;
33672;SDS011;20011;51.510;9.942;2022-12-08T10:54:03;6.85;;;4.68;;
33672;SDS011;20011;51.510;9.942;2022-12-08T10:56:32;5.93;;;4.35;;
33672;SDS011;20011;51.510;9.942;2022-12-08T11:01:33;5.35;;;4.05;;
33672;SDS011;20011;51.510;9.942;2022-12-08T11:04:53;6.18;;;3.92;;
33672;SDS011;20011;51.510;9.942;2022-12-08T11:07:02;6.18;;;3.92;;
33672;SDS011;20011;51.510;9.942;2022-12-08T11:12:14;7.30;;;4.70;;
33672;SDS011;20011;51.510;9.942;2022-12-08T11:17:11;5.22;;;3.75;;
33672;SDS011;20011;51.510;9.942;2022-12-08T11:22:38;5.88;;;4.25;;
33672;SDS011;20011;51.510;9.942;2022-12-08T11:27:58;6.60;;;4.45;;
33672;SDS011;20011;51.510;9.942;2022-12-08T11:30:29;9.23;;;5.53;;
33672;SDS011;20011;51.510;9.942;2022-12-08T11:33:44;6.53;;;4.93;;
33672;SDS011;20011;51.510;9.942;2022-12-08T11:35:57;6.93;;;5.32;;
33672;SDS011;20011;51.510;9.942;2022-12-08T11:38:41;9.27;;;5.20;;
33672;SDS011;20011;51.510;9.942;2022-12-08T11:41:13;7.35;;;5.22;;
33672;SDS011;20011;51.510;9.942;2022-12-08T11:43:57;7.35;;;5.38;;
33672;SDS011;20011;51.510;9.942;2022-12-08T11:46:42;8.90;;;5.72;;
33672;SDS011;20011;51.510;9.942;2022-12-08T11:49:16;11.25;;;5.43;;
33672;SDS011;20011;51.510;9.942;2022-12-08T11:51:52;11.30;;;5.82;;
33672;SDS011;20011;51.510;9.942;2022-12-08T11:54:29;7.88;;;5.47;;
33672;SDS011;20011;51.510;9.942;2022-12-08T11:57:12;10.18;;;5.97;;
33672;SDS011;20011;51.510;9.942;2022-12-08T12:02:23;9.93;;;5.15;;
33672;SDS011;20011;51.510;9.942;2022-12-08T12:13:04;6.30;;;4.20;;
33672;SDS011;20011;51.510;9.942;2022-12-08T12:18:30;10.07;;;4.78;;
33672;SDS011;20011;51.510;9.942;2022-12-08T12:21:18;6.45;;;5.00;;
33672;SDS011;20011;51.510;9.942;2022-12-08T12:26:28;9.52;;;4.78;;
33672;SDS011;20011;51.510;9.942;2022-12-08T12:29:02;3.75;;;3.03;;
33672;SDS011;20011;51.510;9.942;2022-12-08T12:31:34;4.25;;;2.97;;
33672;SDS011;20011;51.510;9.942;2022-12-08T12:34:07;2.22;;;1.90;;
33672;SDS011;20011;51.510;9.942;2022-12-08T12:36:49;1.20;;;1.10;;
33672;SDS011;20011;51.510;9.942;2022-12-08T12:39:18;1.65;;;1.25;;
33672;SDS011;20011;51.510;9.942;2022-12-08T12:44:24;1.25;;;1.13;;
33672;SDS011;20011;51.510;9.942;2022-12-08T12:47:04;1.55;;;1.08;;
33672;SDS011;20011;51.510;9.942;2022-12-08T12:55:29;3.47;;;2.30;;
33672;SDS011;20011;51.510;9.942;2022-12-08T12:57:36;1.40;;;1.30;;
33672;SDS011;20011;51.510;9.942;2022-12-08T13:00:08;1.17;;;1.08;;
33672;SDS011;20011;51.510;9.942;2022-12-08T13:02:50;2.58;;;1.40;;
33672;SDS011;20011;51.510;9.942;2022-12-08T13:05:26;1.58;;;1.20;;
33672;SDS011;20011;51.510;9.942;2022-12-08T13:15:40;0.98;;;0.95;;
33672;SDS011;20011;51.510;9.942;2022-12-08T13:20:53;1.20;;;1.10;;
33672;SDS011;20011;51.510;9.942;2022-12-08T13:26:13;1.95;;;1.10;;
33672;SDS011;20011;51.510;9.942;2022-12-08T13:31:38;1.35;;;1.08;;
33672;SDS011;20011;51.510;9.942;2022-12-08T13:34:15;1.30;;;1.20;;
33672;SDS011;20011;51.510;9.942;2022-12-08T13:51:19;2.17;;;1.23;;
33672;SDS011;20011;51.510;9.942;2022-12-08T13:57:25;1.80;;;1.50;;
33672;SDS011;20011;51.510;9.942;2022-12-08T13:59:59;3.72;;;1.75;;
33672;SDS011;20011;51.510;9.942;2022-12-08T14:02:38;1.38;;;1.27;;
33672;SDS011;20011;51.510;9.942;2022-12-08T14:05:15;1.30;;;1.00;;
33672;SDS011;20011;51.510;9.942;2022-12-08T14:07:50;0.98;;;0.98;;
33672;SDS011;20011;51.510;9.942;2022-12-08T14:10:22;2.83;;;1.10;;
33672;SDS011;20011;51.510;9.942;2022-12-08T14:12:54;1.05;;;0.95;;
33672;SDS011;20011;51.510;9.942;2022-12-08T14:15:31;0.65;;;0.65;;
33672;SDS011;20011;51.510;9.942;2022-12-08T14:18:04;0.90;;;0.77;;
33672;SDS011;20011;51.510;9.942;2022-12-08T14:20:33;0.80;;;0.80;;
33672;SDS011;20011;51.510;9.942;2022-12-08T14:23:20;1.30;;;0.90;;
33672;SDS011;20011;51.510;9.942;2022-12-08T14:25:48;2.35;;;1.33;;
33672;SDS011;20011;51.510;9.942;2022-12-08T14:28:15;1.27;;;0.77;;
33672;SDS011;20011;51.510;9.942;2022-12-08T14:30:43;1.38;;;1.00;;
33672;SDS011;20011;51.510;9.942;2022-12-08T14:33:11;1.45;;;0.80;;
33672;SDS011;20011;51.510;9.942;2022-12-08T14:35:48;2.22;;;0.82;;
33672;SDS011;20011;51.510;9.942;2022-12-08T14:38:18;1.08;;;0.90;;
33672;SDS011;20011;51.510;9.942;2022-12-08T14:41:05;1.50;;;1.15;;
33672;SDS011;20011;51.510;9.942;2022-12-08T14:43:34;0.90;;;0.80;;
33672;SDS011;20011;51.510;9.942;2022-12-08T14:46:02;1.40;;;0.90;;
33672;SDS011;20011;51.510;9.942;2022-12-08T14:48:39;1.00;;;0.85;;
33672;SDS011;20011;51.510;9.942;2022-12-08T14:58:34;1.95;;;0.90;;
33672;SDS011;20011;51.510;9.942;2022-12-08T15:01:01;0.82;;;0.82;;
33672;SDS011;20011;51.510;9.942;2022-12-08T15:03:30;0.95;;;0.88;;
33672;SDS011;20011;51.510;9.942;2022-12-08T15:05:59;1.20;;;1.10;;
33672;SDS011;20011;51.510;9.942;2022-12-08T15:08:30;1.25;;;1.00;;
33672;SDS011;20011;51.510;9.942;2022-12-08T15:13:48;1.13;;;0.98;;
33672;SDS011;20011;51.510;9.942;2022-12-08T15:19:00;1.13;;;1.02;;
33672;SDS011;20011;51.510;9.942;2022-12-08T15:21:28;0.90;;;0.90;;
33672;SDS011;20011;51.510;9.942;2022-12-08T15:23:59;0.95;;;0.93;;
33672;SDS011;20011;51.510;9.942;2022-12-08T15:26:26;1.42;;;1.30;;
33672;SDS011;20011;51.510;9.942;2022-12-08T15:28:54;1.67;;;1.33;;
33672;SDS011;20011;51.510;9.942;2022-12-08T15:31:21;1.08;;;0.98;;
33672;SDS011;20011;51.510;9.942;2022-12-08T15:33:49;1.95;;;1.13;;
33672;SDS011;20011;51.510;9.942;2022-12-08T15:36:17;1.40;;;1.30;;
33672;SDS011;20011;51.510;9.942;2022-12-08T15:38:44;0.75;;;0.75;;
33672;SDS011;20011;51.510;9.942;2022-12-08T15:41:11;1.30;;;1.20;;
33672;SDS011;20011;51.510;9.942;2022-12-08T15:43:40;1.27;;;1.17;;
33672;SDS011;20011;51.510;9.942;2022-12-08T15:46:07;1.90;;;1.70;;
33672;SDS011;20011;51.510;9.942;2022-12-08T15:48:35;1.20;;;1.10;;
33672;SDS011;20011;51.510;9.942;2022-12-08T15:51:03;3.15;;;1.48;;
33672;SDS011;20011;51.510;9.942;2022-12-08T15:53:30;1.50;;;1.40;;
33672;SDS011;20011;51.510;9.942;2022-12-08T15:55:58;1.00;;;1.00;;
33672;SDS011;20011;51.510;9.942;2022-12-08T15:58:49;2.72;;;1.17;;
33672;SDS011;20011;51.510;9.942;2022-12-08T16:01:20;1.25;;;1.17;;
33672;SDS011;20011;51.510;9.942;2022-12-08T16:03:48;2.00;;;1.45;;
33672;SDS011;20011;51.510;9.942;2022-12-08T16:06:36;1.13;;;1.02;;
33672;SDS011;20011;51.510;9.942;2022-12-08T16:11:50;3.10;;;1.75;;
33672;SDS011;20011;51.510;9.942;2022-12-08T16:14:36;1.73;;;1.55;;
33672;SDS011;20011;51.510;9.942;2022-12-08T16:17:25;1.48;;;1.38;;
33672;SDS011;20011;51.510;9.942;2022-12-08T16:19:53;1.67;;;1.58;;
33672;SDS011;20011;51.510;9.942;2022-12-08T16:22:20;2.78;;;1.60;;
33672;SDS011;20011;51.510;9.942;2022-12-08T16:25:10;2.17;;;1.80;;
33672;SDS011;20011;51.510;9.942;2022-12-08T16:27:47;1.92;;;1.80;;
33672;SDS011;20011;51.510;9.942;2022-12-08T16:30:36;2.78;;;1.90;;
33672;SDS011;20011;51.510;9.942;2022-12-08T16:33:03;1.88;;;1.52;;
33672;SDS011;20011;51.510;9.942;2022-12-08T16:35:31;3.17;;;2.15;;
33672;SDS011;20011;51.510;9.942;2022-12-08T16:37:59;3.10;;;2.58;;
33672;SDS011;20011;51.510;9.942;2022-12-08T16:40:26;5.03;;;3.90;;
33672;SDS011;20011;51.510;9.942;2022-12-08T16:42:54;3.58;;;3.25;;
33672;SDS011;20011;51.510;9.942;2022-12-08T16:45:22;4.28;;;3.22;;
33672;SDS011;20011;51.510;9.942;2022-12-08T16:47:54;3.20;;;2.90;;
33672;SDS011;20011;51.510;9.942;2022-12-08T16:50:29;4.13;;;2.97;;
33672;SDS011;20011;51.510;9.942;2022-12-08T16:52:59;3.05;;;2.40;;
33672;SDS011;20011;51.510;9.942;2022-12-08T16:55:31;4.10;;;2.65;;
33672;SDS011;20011;51.510;9.942;2022-12-08T16:57:59;4.40;;;3.05;;
33672;SDS011;20011;51.510;9.942;2022-12-08T17:00:28;5.53;;;3.25;;
33672;SDS011;20011;51.510;9.942;2022-12-08T17:03:07;4.32;;;3.33;;
33672;SDS011;20011;51.510;9.942;2022-12-08T17:09:06;4.38;;;3.33;;
33672;SDS011;20011;51.510;9.942;2022-12-08T17:12:04;6.68;;;3.78;;
33672;SDS011;20011;51.510;9.942;2022-12-08T17:15:30;5.70;;;3.78;;
33672;SDS011;20011;51.510;9.942;2022-12-08T17:18:52;5.00;;;3.85;;
33672;SDS011;20011;51.510;9.942;2022-12-08T17:21:56;5.97;;;4.40;;
33672;SDS011;20011;51.510;9.942;2022-12-08T17:25:23;10.35;;;4.55;;
33672;SDS011;20011;51.510;9.942;2022-12-08T17:31:52;6.45;;;3.88;;
33672;SDS011;20011;51.510;9.942;2022-12-08T17:34:45;6.68;;;4.25;;
33672;SDS011;20011;51.510;9.942;2022-12-08T17:38:07;5.70;;;3.90;;
33672;SDS011;20011;51.510;9.942;2022-12-08T17:41:04;5.20;;;3.15;;
33672;SDS011;20011;51.510;9.942;2022-12-08T17:44:32;6.70;;;3.08;;
33672;SDS011;20011;51.510;9.942;2022-12-08T17:51:23;3.03;;;2.60;;
33672;SDS011;20011;51.510;9.942;2022-12-08T17:53:51;6.13;;;3.83;;
33672;SDS011;20011;51.510;9.942;2022-12-08T17:56:18;6.78;;;4.63;;
33672;SDS011;20011;51.510;9.942;2022-12-08T17:58:46;6.63;;;4.10;;
33672;SDS011;20011;51.510;9.942;2022-12-08T18:01:20;8.52;;;4.18;;
33672;SDS011;20011;51.510;9.942;2022-12-08T18:03:48;5.63;;;3.90;;
33672;SDS011;20011;51.510;9.942;2022-12-08T18:06:15;9.70;;;4.35;;
33672;SDS011;20011;51.510;9.942;2022-12-08T18:08:43;7.97;;;5.10;;
33672;SDS011;20011;51.510;9.942;2022-12-08T18:11:11;8.23;;;4.30;;
33672;SDS011;20011;51.510;9.942;2022-12-08T18:13:40;6.55;;;3.72;;
33672;SDS011;20011;51.510;9.942;2022-12-08T18:16:07;5.13;;;3.50;;
33672;SDS011;20011;51.510;9.942;2022-12-08T18:18:35;4.15;;;2.63;;
33672;SDS011;20011;51.510;9.942;2022-12-08T18:21:03;4.28;;;1.98;;
33672;SDS011;20011;51.510;9.942;2022-12-08T18:23:30;4.65;;;2.20;;
33672;SDS011;20011;51.510;9.942;2022-12-08T18:25:57;2.10;;;1.90;;
33672;SDS011;20011;51.510;9.942;2022-12-08T18:28:25;1.88;;;1.48;;
33672;SDS011;20011;51.510;9.942;2022-12-08T18:30:51;2.95;;;2.60;;
33672;SDS011;20011;51.510;9.942;2022-12-08T18:33:18;5.72;;;3.67;;